Time;durP1;ratioP1;P1;durP2;ratioP2;P2;SDS_P1;SDS_P2;PMS_P1;PMS_P2;Temp;Humidity;BMP_temperature;BMP_pressure;BME280_temperature;BME280_humidity;BME280_pressure;Samples;Min_cycle;Max_cycle;Signal;HPM_P1;HPM_P2
2022/01/22 00:01:45;;;;;;;;;14.00;10.50;;;;;7.04;58.99;103377.81;5080440;27;45282;-51
2022/01/22 00:04:10;;;;;;;;;12.25;9.00;;;;;7.03;59.36;103375.22;5079672;27;47076;-56
2022/01/22 00:06:36;;;;;;;;;27.50;22.75;;;;;7.02;59.23;103374.34;5079915;27;45228;-56
2022/01/22 00:09:02;;;;;;;;;16.75;14.75;;;;;7.04;59.10;103379.59;5080041;27;45231;-54
2022/01/22 00:11:34;;;;;;;;;22.00;16.00;;;;;7.06;59.75;103377.75;5080212;27;45245;-66
2022/01/22 00:16:43;;;;;;;;;23.25;22.50;;;;;7.03;59.35;103367.28;5079820;28;45264;-53
2022/01/22 00:19:10;;;;;;;;;20.00;16.50;;;;;7.07;59.39;103368.88;5079669;27;45342;-51
2022/01/22 00:21:36;;;;;;;;;22.75;22.25;;;;;7.07;59.62;103363.59;5080007;27;45774;-64
2022/01/22 00:24:02;;;;;;;;;27.75;25.50;;;;;7.08;59.59;103365.31;5079781;27;46037;-54
2022/01/22 00:26:28;;;;;;;;;25.50;16.00;;;;;7.07;59.50;103367.09;5079573;27;45904;-53
2022/01/22 00:28:53;;;;;;;;;20.75;14.50;;;;;7.08;59.45;103358.25;5079818;27;45402;-50
2022/01/22 00:31:18;;;;;;;;;18.75;15.75;;;;;6.73;59.50;103307.53;5079911;27;45420;-54
2022/01/22 00:33:44;;;;;;;;;34.00;18.00;;;;;6.95;59.27;103338.47;5079429;27;46005;-51
2022/01/22 00:36:09;;;;;;;;;24.00;15.25;;;;;7.08;59.14;103358.25;5079520;27;45398;-56
2022/01/22 00:38:34;;;;;;;;;13.50;11.75;;;;;7.06;59.54;103344.19;5077476;27;45278;-49
2022/01/22 00:41:00;;;;;;;;;16.25;14.50;;;;;7.08;59.92;103349.44;5079804;28;45407;-50
2022/01/22 00:43:26;;;;;;;;;20.25;12.50;;;;;7.05;59.97;103349.56;5079365;28;46053;-53
2022/01/22 00:45:51;;;;;;;;;12.25;9.50;;;;;7.07;59.99;103351.22;5079385;28;45378;-55
2022/01/22 00:48:17;;;;;;;;;16.00;12.50;;;;;7.07;59.33;103353.84;5079647;28;45486;-54
2022/01/22 00:50:43;;;;;;;;;19.00;15.25;;;;;7.05;59.43;103346.91;5079556;28;45354;-50
2022/01/22 00:53:09;;;;;;;;;11.00;8.50;;;;;7.08;60.01;103352.06;5079344;28;47066;-58
2022/01/22 00:55:34;;;;;;;;;14.75;12.25;;;;;7.08;59.67;103352.06;5079068;28;45322;-56
2022/01/22 00:58:00;;;;;;;;;16.50;12.50;;;;;6.98;59.58;103344.50;5079417;28;45355;-56
2022/01/22 01:00:25;;;;;;;;;19.00;14.25;;;;;7.05;60.04;103352.22;5079570;28;45450;-59
2022/01/22 01:02:51;;;;;;;;;11.75;8.50;;;;;7.08;59.35;103360.91;5078924;28;46026;-50
2022/01/22 01:05:16;;;;;;;;;15.00;9.25;;;;;7.09;60.29;103349.38;5078998;28;45515;-50
2022/01/22 01:07:42;;;;;;;;;9.75;9.75;;;;;7.10;60.10;103348.44;5079047;28;45330;-56
2022/01/22 01:10:13;;;;;;;;;13.00;10.75;;;;;7.02;60.11;103341.75;5079371;28;45327;-59
2022/01/22 01:12:40;;;;;;;;;15.75;10.25;;;;;7.12;59.67;103348.38;5079064;28;47022;-56
2022/01/22 01:15:22;;;;;;;;;12.00;10.50;;;;;7.11;59.76;103344.88;5078764;28;45389;-51
2022/01/22 01:34:17;;;;;;;;;11.50;10.75;;;;;7.13;60.39;103335.09;5078465;28;45803;-57
2022/01/22 01:36:44;;;;;;;;;9.00;9.00;;;;;7.13;60.36;103343.03;5078435;28;45310;-53
2022/01/22 01:39:13;;;;;;;;;19.50;11.75;;;;;7.03;60.51;103320.50;5078203;28;45278;-62
2022/01/22 01:41:51;;;;;;;;;13.50;10.00;;;;;7.13;60.17;103329.81;5078815;28;45374;-62
2022/01/22 01:44:17;;;;;;;;;10.25;10.25;;;;;7.15;60.19;103335.03;5078265;28;45981;-64
2022/01/22 01:46:45;;;;;;;;;10.25;8.00;;;;;7.14;60.05;103335.97;5078239;28;45510;-61
2022/01/22 01:49:11;;;;;;;;;8.25;7.50;;;;;7.10;60.28;103329.94;5078523;28;45288;-53
2022/01/22 01:51:36;;;;;;;;;13.25;9.00;;;;;7.16;60.07;103342.03;5078105;28;45377;-51
2022/01/22 01:54:13;;;;;;;;;8.50;8.00;;;;;7.16;60.13;103349.97;5078024;28;45504;-49
2022/01/22 01:59:22;;;;;;;;;9.00;7.00;;;;;7.13;60.50;103337.75;5078383;28;45497;-49
2022/01/22 02:01:48;;;;;;;;;12.75;10.25;;;;;7.14;60.17;103331.53;5078438;28;45781;-51
2022/01/22 02:04:14;;;;;;;;;12.75;8.00;;;;;7.15;60.21;103342.97;5078297;28;45351;-53
2022/01/22 02:06:40;;;;;;;;;11.25;11.00;;;;;7.15;60.25;103337.69;5078309;28;45347;-48
2022/01/22 02:09:08;;;;;;;;;7.50;7.50;;;;;7.15;60.09;103340.34;5077670;28;45388;-52
2022/01/22 02:11:35;;;;;;;;;14.00;9.00;;;;;7.15;60.41;103340.34;5078486;28;45461;-50
2022/01/22 02:14:07;;;;;;;;;10.50;8.75;;;;;7.15;60.11;103342.97;5077882;28;45272;-55
2022/01/22 02:24:53;;;;;;;;;14.00;9.00;;;;;7.13;60.31;103327.16;5078764;28;45830;-51
2022/01/22 02:27:19;;;;;;;;;11.25;8.00;;;;;7.12;60.20;103320.16;5078345;28;45339;-51
2022/01/22 02:29:45;;;;;;;;;15.75;9.50;;;;;7.16;60.08;103332.34;5078691;28;45410;-64
2022/01/22 02:35:04;;;;;;;;;10.25;9.00;;;;;7.20;60.07;103327.75;5080781;28;45906;-52
2022/01/22 02:37:35;;;;;;;;;9.00;8.00;;;;;7.21;59.80;103322.44;5078850;28;45375;-51
2022/01/22 02:40:09;;;;;;;;;13.75;7.50;;;;;7.19;60.43;103321.63;5078164;28;45347;-49
2022/01/22 02:42:35;;;;;;;;;12.25;9.75;;;;;7.17;60.09;103310.25;5078776;28;45520;-59
2022/01/22 02:45:07;;;;;;;;;9.50;9.50;;;;;7.20;59.77;103318.03;5078330;28;45323;-50
2022/01/22 02:47:32;;;;;;;;;14.00;11.00;;;;;7.22;59.72;103315.34;5077854;28;45339;-47
2022/01/22 02:49:58;;;;;;;;;12.75;9.25;;;;;7.21;59.87;103314.50;5077779;28;45329;-52
2022/01/22 02:52:24;;;;;;;;;16.25;10.00;;;;;7.22;60.26;103320.63;5078038;28;45200;-48
2022/01/22 02:54:50;;;;;;;;;19.00;12.50;;;;;7.21;60.22;103306.53;5077446;28;47227;-46
2022/01/22 02:57:16;;;;;;;;;13.00;8.50;;;;;7.21;59.57;103306.53;5077421;28;45308;-49
2022/01/22 02:59:42;;;;;;;;;13.25;10.25;;;;;7.20;60.20;103299.50;5075998;28;45273;-54
2022/01/22 03:02:12;;;;;;;;;12.00;10.50;;;;;7.21;59.94;103308.34;5076622;27;45624;-47
2022/01/22 03:04:37;;;;;;;;;16.50;12.75;;;;;7.19;60.30;103311.03;5077007;28;46641;-50
2022/01/22 03:07:03;;;;;;;;;13.75;8.25;;;;;7.12;60.37;103295.44;5076757;28;45406;-52
2022/01/22 03:09:31;;;;;;;;;7.75;7.50;;;;;7.10;60.54;103289.38;5077284;28;45310;-55
2022/01/22 03:17:23;;;;;;;;;12.75;8.50;;;;;7.16;59.93;103295.28;5076853;28;45410;-53
2022/01/22 03:22:17;;;;;;;;;12.00;10.75;;;;;7.12;60.18;103291.03;5110061;27;45521;-50
2022/01/22 03:27:29;;;;;;;;;13.00;9.00;;;;;7.18;60.54;103311.09;5076914;28;45587;-52
2022/01/22 03:29:56;;;;;;;;;12.75;11.00;;;;;7.16;61.09;103302.34;5077082;28;45296;-50
2022/01/22 03:32:22;;;;;;;;;11.00;9.00;;;;;7.10;60.53;103305.25;5077151;28;45403;-50
2022/01/22 03:35:00;;;;;;;;;12.00;8.50;;;;;7.17;60.22;103307.59;5076713;28;45445;-51
2022/01/22 03:37:27;;;;;;;;;10.00;10.00;;;;;7.17;60.91;103310.25;5076819;28;45283;-52
2022/01/22 03:39:54;;;;;;;;;12.25;10.00;;;;;7.17;60.56;103318.19;5076595;28;45164;-50
2022/01/22 03:42:20;;;;;;;;;13.00;8.25;;;;;7.17;60.14;103310.25;5077009;28;45338;-54
2022/01/22 03:44:46;;;;;;;;;13.50;9.00;;;;;7.19;60.36;103326.03;5076730;28;46417;-50
2022/01/22 03:47:12;;;;;;;;;12.00;10.00;;;;;7.18;60.21;103322.53;5076720;28;45334;-49
2022/01/22 03:49:38;;;;;;;;;17.25;11.75;;;;;7.15;60.44;103325.31;5077114;28;45332;-49
2022/01/22 03:52:03;;;;;;;;;8.75;8.75;;;;;7.17;60.43;103320.81;5076983;28;45366;-49
2022/01/22 03:54:29;;;;;;;;;9.50;9.50;;;;;7.17;61.05;103315.53;5076587;28;46200;-49
2022/01/22 03:56:54;;;;;;;;;14.00;8.75;;;;;7.20;60.52;103317.19;5076867;28;45355;-49
2022/01/22 03:59:20;;;;;;;;;8.75;8.75;;;;;7.20;60.55;103317.19;5076636;28;45275;-54
2022/01/22 04:04:31;;;;;;;;;15.75;11.75;;;;;7.21;60.76;103321.56;5076736;28;45243;-59
2022/01/22 04:09:44;;;;;;;;;14.00;10.25;;;;;7.14;60.68;103304.19;5076486;28;45358;-49
2022/01/22 04:12:12;;;;;;;;;11.00;11.00;;;;;7.19;61.58;103324.25;5076782;28;45378;-53
2022/01/22 04:14:46;;;;;;;;;12.00;9.50;;;;;7.16;60.74;103315.56;5079129;28;45642;-50
2022/01/22 04:25:09;;;;;;;;;13.75;11.00;;;;;7.13;61.11;103303.34;5080120;28;45461;-61
2022/01/22 04:27:35;;;;;;;;;15.25;12.00;;;;;7.13;61.39;103308.63;5079591;28;45374;-57
2022/01/22 04:30:00;;;;;;;;;12.00;9.75;;;;;7.11;61.34;103296.38;5079854;28;45302;-62
2022/01/22 04:32:28;;;;;;;;;9.25;9.25;;;;;7.11;60.84;103310.47;5080036;28;45303;-57
2022/01/22 04:34:54;;;;;;;;;17.50;13.00;;;;;7.10;61.13;103306.09;5079380;28;47230;-61
2022/01/22 04:37:21;;;;;;;;;18.75;13.00;;;;;7.09;61.51;103308.81;5079445;28;45310;-62
2022/01/22 04:39:48;;;;;;;;;17.50;12.25;;;;;7.09;61.27;103307.03;5079504;28;45297;-49
2022/01/22 04:42:17;;;;;;;;;14.75;8.75;;;;;7.07;61.76;103303.56;5079621;28;45342;-52
2022/01/22 04:45:09;;;;;;;;;14.50;11.00;;;;;7.07;61.73;103303.56;5079600;28;45418;-53
2022/01/22 04:55:38;;;;;;;;;14.50;12.50;;;;;7.00;61.58;103310.91;5079245;28;46178;-52
2022/01/22 04:58:05;;;;;;;;;16.50;15.00;;;;;7.04;61.30;103316.94;5078823;28;45374;-55
2022/01/22 05:00:32;;;;;;;;;13.00;10.25;;;;;7.04;61.38;103308.13;5079336;28;45227;-52
2022/01/22 05:02:59;;;;;;;;;14.75;12.00;;;;;6.95;61.25;103304.06;5079284;28;45466;-51
2022/01/22 05:05:24;;;;;;;;;16.00;14.00;;;;;7.03;61.67;103311.69;5078807;28;47006;-50
2022/01/22 05:07:50;;;;;;;;;18.75;13.25;;;;;7.00;61.25;103302.97;5078960;28;45381;-48
2022/01/22 05:10:16;;;;;;;;;24.25;20.25;;;;;7.00;61.50;103318.00;5079156;28;45398;-55
2022/01/22 05:12:42;;;;;;;;;22.25;17.50;;;;;6.98;61.42;103310.09;5079413;28;45321;-50
2022/01/22 05:15:08;;;;;;;;;23.75;21.25;;;;;7.00;61.20;103312.69;5077477;28;48290;-50
2022/01/22 05:17:36;;;;;;;;;22.00;19.25;;;;;6.98;61.84;103314.53;5078994;27;45479;-50
2022/01/22 05:25:10;;;;;;;;;26.75;19.00;;;;;6.99;61.48;103322.44;5077918;28;45989;-57
2022/01/22 05:33:01;;;;;;;;;27.75;21.50;;;;;6.99;61.72;103325.06;5079650;28;45421;-48
2022/01/22 05:38:11;;;;;;;;;24.25;21.00;;;;;7.00;61.29;103318.00;5079599;28;45509;-50
2022/01/22 05:40:36;;;;;;;;;31.50;21.25;;;;;6.99;61.40;103332.13;5079082;28;45420;-47
2022/01/22 05:43:04;;;;;;;;;25.50;23.00;;;;;6.97;61.52;103326.91;5078909;28;45276;-49
2022/01/22 05:45:29;;;;;;;;;31.00;24.00;;;;;6.95;61.83;103315.53;5078434;28;46116;-52
2022/01/22 05:47:55;;;;;;;;;30.00;24.75;;;;;6.98;61.28;103322.47;5078257;28;45303;-51
2022/01/22 05:50:32;;;;;;;;;26.50;21.25;;;;;6.89;61.82;103309.59;5078342;28;45372;-52
2022/01/22 05:53:02;;;;;;;;;29.00;24.50;;;;;6.88;61.12;103308.75;5078643;28;45667;-49
2022/01/22 06:01:14;;;;;;;;;29.00;23.00;;;;;6.95;60.95;103339.34;5015716;28;45281;-48
2022/01/22 06:03:40;;;;;;;;;26.00;23.50;;;;;6.90;61.19;103330.69;5015643;28;45448;-52
2022/01/22 06:06:06;;;;;;;;;28.75;24.00;;;;;6.96;61.66;103342.84;5015199;28;45419;-47
2022/01/22 06:08:34;;;;;;;;;29.50;23.00;;;;;6.83;61.70;103318.66;5015131;28;45337;-47
2022/01/22 06:11:08;;;;;;;;;29.25;24.50;;;;;6.96;61.52;103348.16;5015318;28;45476;-49
2022/01/22 06:13:43;;;;;;;;;28.50;22.50;;;;;6.95;61.66;103342.00;5015311;28;45373;-51
2022/01/22 06:16:10;;;;;;;;;22.75;20.50;;;;;6.92;61.85;103333.31;5015173;28;45328;-50
2022/01/22 06:18:36;;;;;;;;;39.25;26.50;;;;;6.92;61.58;103335.94;5015052;28;45478;-47
2022/01/22 06:21:01;;;;;;;;;31.75;20.00;;;;;6.91;61.88;103340.38;5015257;28;45488;-52
2022/01/22 06:23:26;;;;;;;;;30.50;22.75;;;;;6.91;62.18;103350.06;5015504;28;45586;-50
2022/01/22 06:25:52;;;;;;;;;31.00;24.75;;;;;6.92;61.90;103350.03;5014972;28;46268;-49
2022/01/22 06:28:17;;;;;;;;;34.50;26.25;;;;;6.82;62.39;103334.56;5015069;28;45439;-47
2022/01/22 06:30:44;;;;;;;;;27.50;23.50;;;;;6.93;61.70;103337.66;5015270;28;45349;-48
2022/01/22 06:33:10;;;;;;;;;30.75;23.75;;;;;6.94;61.62;103337.59;5064860;28;45419;-46
2022/01/22 06:35:35;;;;;;;;;33.50;24.25;;;;;6.92;61.23;103330.66;5075962;28;46986;-50
2022/01/22 06:38:03;;;;;;;;;25.50;23.00;;;;;6.96;61.82;103334.91;5076094;28;45303;-52
2022/01/22 06:42:54;;;;;;;;;22.25;20.00;;;;;6.94;62.00;103342.88;5077890;28;45310;-49
2022/01/22 06:45:19;;;;;;;;;24.50;21.50;;;;;6.95;61.53;103343.75;5077485;28;45429;-53
2022/01/22 06:47:45;;;;;;;;;27.00;22.00;;;;;6.88;61.62;103335.19;5077222;28;45327;-50
2022/01/22 06:50:10;;;;;;;;;27.00;23.00;;;;;6.93;61.43;103343.81;5077461;28;45319;-57
2022/01/22 06:52:37;;;;;;;;;28.00;20.00;;;;;6.94;61.77;103347.31;5077673;28;45522;-58
2022/01/22 06:55:04;;;;;;;;;27.75;21.25;;;;;6.91;61.87;103340.38;5077202;28;45402;-60
2022/01/22 06:57:29;;;;;;;;;25.00;23.00;;;;;6.93;62.07;103349.13;5076667;27;45543;-59
2022/01/22 06:59:55;;;;;;;;;32.25;24.00;;;;;6.89;61.75;103352.78;5077226;28;45255;-59
2022/01/22 07:02:20;;;;;;;;;31.25;23.50;;;;;6.95;61.92;103351.69;5077284;28;45294;-62
2022/01/22 07:04:46;;;;;;;;;33.75;22.00;;;;;6.93;61.92;103348.25;5077011;28;45379;-56
2022/01/22 07:07:12;;;;;;;;;29.25;25.75;;;;;6.94;62.84;103356.13;5077000;28;45389;-60
2022/01/22 07:09:38;;;;;;;;;32.00;22.50;;;;;6.82;61.83;103332.78;5076808;28;45311;-58
2022/01/22 07:12:04;;;;;;;;;27.00;22.50;;;;;6.94;62.03;103358.75;5075634;28;45395;-60
2022/01/22 07:14:30;;;;;;;;;31.25;20.75;;;;;6.92;62.32;103346.53;5076613;28;47032;-55
2022/01/22 07:16:55;;;;;;;;;31.50;24.25;;;;;6.95;61.91;103359.63;5076802;28;45350;-58
2022/01/22 07:19:21;;;;;;;;;35.00;24.25;;;;;6.95;62.21;103357.88;5076878;28;45620;-60
2022/01/22 07:21:55;;;;;;;;;40.50;29.50;;;;;6.95;62.33;103363.16;5076876;28;45421;-63
2022/01/22 07:24:23;;;;;;;;;28.75;18.00;;;;;6.94;61.95;103348.19;5076438;28;46709;-59
2022/01/22 07:26:57;;;;;;;;;26.75;23.00;;;;;6.89;62.70;103338.72;5076865;28;45571;-55
2022/01/22 07:29:23;;;;;;;;;30.25;27.00;;;;;6.94;62.10;103355.25;5076697;28;45223;-53
2022/01/22 07:31:48;;;;;;;;;31.75;27.00;;;;;6.96;62.01;103361.38;5076896;28;45457;-50
2022/01/22 07:34:14;;;;;;;;;34.50;26.50;;;;;6.96;62.47;103364.03;5076555;28;45322;-49
2022/01/22 07:36:39;;;;;;;;;33.75;24.00;;;;;6.89;62.60;103355.44;5076481;28;45423;-47
2022/01/22 07:39:05;;;;;;;;;31.75;23.25;;;;;6.97;62.19;103371.03;5076427;28;45485;-47
2022/01/22 07:41:30;;;;;;;;;30.25;26.75;;;;;6.97;62.60;103365.75;5076590;28;45366;-49
2022/01/22 07:43:56;;;;;;;;;33.25;25.75;;;;;6.98;61.92;103364.81;5076441;28;46013;-48
2022/01/22 07:46:21;;;;;;;;;32.25;27.00;;;;;6.98;61.95;103362.16;5076202;28;45334;-49
2022/01/22 07:48:47;;;;;;;;;31.75;25.50;;;;;6.97;62.28;103366.59;5078300;28;45347;-50
2022/01/22 07:51:13;;;;;;;;;35.25;26.25;;;;;7.02;62.71;103369.06;5080281;28;45351;-51
2022/01/22 07:53:39;;;;;;;;;38.75;24.00;;;;;7.04;62.61;103372.53;5079628;28;45464;-48
2022/01/22 07:56:04;;;;;;;;;32.25;26.50;;;;;7.05;62.09;103379.53;5079907;28;45314;-48
2022/01/22 07:58:30;;;;;;;;;28.25;25.75;;;;;7.04;62.12;103380.47;5079941;28;45156;-48
2022/01/22 08:00:56;;;;;;;;;36.00;27.75;;;;;7.05;61.99;103376.91;5079999;28;45429;-47
2022/01/22 08:03:21;;;;;;;;;26.00;22.00;;;;;7.03;62.39;103376.06;5079638;27;46042;-49
2022/01/22 08:05:46;;;;;;;;;27.00;23.00;;;;;7.05;61.89;103378.69;5079544;28;45435;-47
2022/01/22 08:08:12;;;;;;;;;27.25;23.25;;;;;7.02;61.96;103384.94;5079930;28;45647;-49
2022/01/22 08:10:37;;;;;;;;;34.75;22.75;;;;;7.03;62.33;103386.66;5079855;28;45416;-49
2022/01/22 08:13:03;;;;;;;;;24.75;23.50;;;;;7.03;62.29;103385.81;5079603;28;45440;-50
2022/01/22 08:15:28;;;;;;;;;25.50;22.75;;;;;7.03;61.93;103389.31;5079554;28;45355;-50
2022/01/22 08:17:55;;;;;;;;;27.25;23.50;;;;;7.00;62.30;103386.81;5079432;28;45511;-50
2022/01/22 08:20:21;;;;;;;;;26.50;23.75;;;;;6.96;62.57;103386.06;5079788;28;45346;-48
2022/01/22 08:22:47;;;;;;;;;38.50;27.50;;;;;7.02;61.92;103387.59;5079200;28;46398;-50
2022/01/22 08:25:12;;;;;;;;;29.75;24.75;;;;;7.02;62.01;103387.59;5079332;28;45489;-49
2022/01/22 08:28:53;;;;;;;;;33.25;28.50;;;;;7.03;62.32;103391.94;5079724;28;45433;-50
2022/01/22 08:30:24;;;;;;;;;29.00;21.25;;;;;7.03;62.09;103388.44;5079696;28;45495;-51
2022/01/22 08:33:08;;;;;;;;;30.50;28.25;;;;;7.04;62.16;103391.06;5079630;28;45298;-55
2022/01/22 08:35:55;;;;;;;;;37.25;24.00;;;;;7.05;62.62;103389.28;5079685;28;45463;-52
2022/01/22 08:38:23;;;;;;;;;31.50;24.50;;;;;7.11;62.38;103405.75;5079206;28;45446;-51
2022/01/22 08:40:50;;;;;;;;;29.25;25.00;;;;;7.12;61.87;103406.63;5079791;28;45426;-50
2022/01/22 08:43:16;;;;;;;;;33.75;25.25;;;;;7.10;62.19;103396.09;5079418;28;45354;-52
2022/01/22 08:45:41;;;;;;;;;24.50;23.50;;;;;7.14;62.11;103396.84;5079466;28;45350;-51
2022/01/22 08:48:06;;;;;;;;;35.25;26.50;;;;;7.18;61.95;103412.56;5079728;28;45503;-53
2022/01/22 08:50:34;;;;;;;;;36.00;24.25;;;;;7.13;61.76;103409.22;5079526;28;45330;-49
2022/01/22 08:52:59;;;;;;;;;32.75;27.50;;;;;7.22;61.68;103410.66;5078042;28;47220;-52
2022/01/22 08:55:25;;;;;;;;;41.75;28.25;;;;;7.18;61.52;103407.25;5079023;28;45316;-48
2022/01/22 08:57:51;;;;;;;;;41.50;28.00;;;;;7.21;61.20;103408.94;5079231;28;45240;-54
2022/01/22 09:00:19;;;;;;;;;27.25;24.75;;;;;7.27;61.69;103421.06;5078509;28;45352;-54
2022/01/22 09:02:45;;;;;;;;;32.00;27.50;;;;;7.30;61.85;103428.91;5079064;27;46352;-54
2022/01/22 09:05:12;;;;;;;;;33.00;23.00;;;;;7.30;62.03;103427.09;5079104;28;45385;-51
2022/01/22 09:07:37;;;;;;;;;35.50;26.75;;;;;7.33;61.28;103444.63;5079218;28;45438;-49
2022/01/22 09:10:04;;;;;;;;;33.50;27.75;;;;;7.34;61.35;103430.50;5079149;28;45489;-53
2022/01/22 09:12:29;;;;;;;;;29.50;22.50;;;;;7.36;61.84;103433.94;5079235;28;46095;-54
2022/01/22 09:14:55;;;;;;;;;35.00;28.00;;;;;7.37;61.08;103433.00;5078886;28;45222;-60
2022/01/22 09:17:21;;;;;;;;;43.00;31.75;;;;;7.38;61.99;103437.41;5079237;28;45413;-51
2022/01/22 09:19:47;;;;;;;;;34.75;27.50;;;;;7.38;61.17;103429.47;5079043;28;45449;-58
2022/01/22 09:22:13;;;;;;;;;26.50;26.00;;;;;7.40;61.29;103428.47;5078550;28;46484;-59
2022/01/22 09:24:40;;;;;;;;;27.75;23.00;;;;;7.40;61.70;103438.19;5078689;28;45331;-53
2022/01/22 09:27:06;;;;;;;;;33.25;27.50;;;;;7.39;61.38;103432.03;5077612;28;45420;-49
2022/01/22 09:29:36;;;;;;;;;30.50;26.75;;;;;7.42;61.50;103431.06;5078875;28;45430;-50
2022/01/22 09:32:01;;;;;;;;;37.75;26.50;;;;;7.46;61.53;103437.97;5078601;28;47037;-48
2022/01/22 09:34:27;;;;;;;;;31.00;24.50;;;;;7.45;61.62;103438.88;5078417;28;45436;-57
2022/01/22 09:36:52;;;;;;;;;30.75;26.25;;;;;7.42;61.30;103436.38;5078733;28;45289;-49
2022/01/22 09:39:18;;;;;;;;;29.75;25.00;;;;;7.52;61.38;103450.97;5078438;28;45416;-51
2022/01/22 09:41:43;;;;;;;;;34.75;25.50;;;;;7.54;61.10;103451.75;5078114;28;46281;-57
2022/01/22 09:44:09;;;;;;;;;25.00;23.50;;;;;7.57;61.55;103448.97;5078484;28;45262;-53
2022/01/22 09:46:36;;;;;;;;;32.50;25.00;;;;;7.59;61.14;103448.94;5078182;28;45215;-57
2022/01/22 09:49:02;;;;;;;;;40.00;29.00;;;;;7.58;61.04;103450.69;5078505;28;45541;-58
2022/01/22 09:51:27;;;;;;;;;36.00;25.00;;;;;7.61;60.68;103457.69;5078055;28;46208;-59
2022/01/22 09:53:52;;;;;;;;;35.25;28.50;;;;;7.61;61.25;103453.22;5078045;28;45330;-58
2022/01/22 09:56:21;;;;;;;;;25.75;25.75;;;;;7.62;60.96;103444.34;5078340;28;45429;-52
2022/01/22 09:58:47;;;;;;;;;35.75;28.00;;;;;7.62;60.79;103447.00;5078226;28;45330;-57
2022/01/22 10:01:24;;;;;;;;;27.75;25.00;;;;;7.65;60.86;103452.19;5077832;28;46222;-56
2022/01/22 10:03:51;;;;;;;;;38.00;28.75;;;;;7.66;60.75;103458.34;5078105;28;45243;-57
2022/01/22 10:06:19;;;;;;;;;30.75;23.25;;;;;7.62;60.23;103451.44;5078057;28;45436;-59
2022/01/22 10:08:44;;;;;;;;;25.50;24.50;;;;;7.64;60.18;103458.41;5078344;28;45302;-57
2022/01/22 10:11:26;;;;;;;;;29.00;27.50;;;;;7.63;59.76;103462.00;5075862;27;48267;-57
2022/01/22 10:13:53;;;;;;;;;31.25;26.25;;;;;7.65;60.43;103460.13;5077992;28;45329;-54
2022/01/22 10:16:46;;;;;;;;;37.00;28.25;;;;;7.65;60.59;103468.09;5077852;28;45283;-56
2022/01/22 10:19:16;;;;;;;;;33.50;27.00;;;;;7.66;60.53;103461.84;5077955;28;45356;-58
2022/01/22 10:21:59;;;;;;;;;42.25;34.00;;;;;7.69;60.82;103467.03;5078082;28;45293;-56
2022/01/22 10:24:39;;;;;;;;;39.00;30.50;;;;;7.73;60.65;103462.50;5077940;28;45186;-55
2022/01/22 10:27:35;;;;;;;;;39.00;32.75;;;;;7.77;59.97;103472.03;5077868;28;45436;-52
2022/01/22 10:30:04;;;;;;;;;37.50;31.50;;;;;7.79;59.87;103471.97;5078183;28;45397;-55
2022/01/22 10:32:47;;;;;;;;;31.50;25.00;;;;;7.82;60.02;103471.84;5076377;28;47207;-53
2022/01/22 10:35:17;;;;;;;;;38.25;23.75;;;;;7.85;59.78;103477.03;5077914;28;45413;-51
2022/01/22 10:37:43;;;;;;;;;29.25;26.25;;;;;7.75;59.04;103458.88;5078560;28;45360;-56
2022/01/22 10:40:29;;;;;;;;;30.50;24.00;;;;;7.86;59.92;103484.91;5078767;28;45498;-57
2022/01/22 10:43:19;;;;;;;;;28.00;20.75;;;;;7.90;59.53;103470.59;5078647;28;45304;-53
2022/01/22 10:46:13;;;;;;;;;30.25;24.00;;;;;7.92;59.32;103473.19;5076358;28;45360;-56
2022/01/22 10:48:43;;;;;;;;;26.25;22.50;;;;;7.97;59.10;103468.59;5077529;27;45397;-55
2022/01/22 10:51:15;;;;;;;;;30.75;25.25;;;;;7.91;59.32;103452.91;5077501;28;45800;-54
2022/01/22 10:54:01;;;;;;;;;32.75;24.75;;;;;8.02;58.24;103461.31;5077104;28;46927;-53
2022/01/22 10:56:29;;;;;;;;;28.25;23.50;;;;;8.04;59.34;103451.47;5077131;28;45474;-54
2022/01/22 10:59:06;;;;;;;;;24.25;23.50;;;;;8.03;58.69;103454.22;5077326;28;45341;-51
2022/01/22 11:01:43;;;;;;;;;39.75;30.00;;;;;8.07;58.52;103461.09;5077559;28;45368;-54
2022/01/22 11:04:12;;;;;;;;;28.75;24.00;;;;;8.11;58.80;103454.75;5076840;28;46204;-53
2022/01/22 11:06:49;;;;;;;;;34.75;29.25;;;;;8.11;59.22;103447.66;5076815;28;45460;-57
2022/01/22 11:09:14;;;;;;;;;28.00;23.50;;;;;8.15;58.15;103456.34;5076858;28;45234;-56
2022/01/22 11:11:41;;;;;;;;;24.50;22.25;;;;;8.18;58.50;103451.78;5077061;28;45364;-56
2022/01/22 11:14:09;;;;;;;;;22.50;20.75;;;;;8.20;58.84;103457.88;5076928;28;45378;-50
2022/01/22 11:16:37;;;;;;;;;31.25;28.25;;;;;8.23;58.30;103457.75;5077009;28;45341;-56
2022/01/22 11:19:03;;;;;;;;;38.25;27.00;;;;;8.25;59.02;103450.56;5076860;28;45435;-55
2022/01/22 11:21:31;;;;;;;;;32.75;23.50;;;;;8.27;58.62;103455.84;5077122;28;45261;-56
2022/01/22 11:23:57;;;;;;;;;35.50;29.75;;;;;8.28;58.01;103446.09;5079019;28;45326;-56
2022/01/22 11:26:23;;;;;;;;;32.50;23.00;;;;;8.29;59.26;103448.66;5080409;28;45445;-56
2022/01/22 11:28:52;;;;;;;;;33.25;26.50;;;;;8.29;58.07;103450.44;5080693;28;45295;-53
2022/01/22 11:31:18;;;;;;;;;31.00;26.50;;;;;8.30;59.11;103449.50;5080741;28;45202;-52
2022/01/22 11:33:48;;;;;;;;;33.25;26.25;;;;;8.28;58.55;103443.44;5080144;28;46269;-55
2022/01/22 11:36:25;;;;;;;;;37.75;28.25;;;;;8.32;59.04;103439.72;5080381;28;45343;-61
2022/01/22 11:38:59;;;;;;;;;31.75;25.00;;;;;8.27;58.89;103425.81;5080488;28;45263;-53
2022/01/22 11:41:25;;;;;;;;;35.25;25.00;;;;;8.36;58.50;103438.66;5080144;28;45402;-49
2022/01/22 11:44:16;;;;;;;;;39.50;30.50;;;;;8.42;58.32;103435.75;5079992;28;47107;-50
2022/01/22 11:46:58;;;;;;;;;41.75;28.75;;;;;8.47;57.55;103433.78;5079851;28;45388;-49
2022/01/22 11:49:27;;;;;;;;;27.00;24.75;;;;;8.50;57.38;103428.34;5113267;27;45365;-50
2022/01/22 11:52:08;;;;;;;;;39.25;24.25;;;;;8.54;58.46;103426.41;5080139;28;45298;-45
2022/01/22 11:55:11;;;;;;;;;31.25;26.25;;;;;8.53;58.13;103428.19;5080013;28;45565;-47
2022/01/22 11:57:38;;;;;;;;;36.00;30.00;;;;;8.58;57.75;103428.84;5079728;28;45372;-50
2022/01/22 12:00:14;;;;;;;;;25.00;24.25;;;;;8.58;57.82;103423.56;5080068;28;45624;-54
2022/01/22 12:02:40;;;;;;;;;33.75;30.25;;;;;8.57;57.65;103424.50;5078816;28;45367;-54
2022/01/22 12:05:05;;;;;;;;;29.75;26.00;;;;;8.57;57.32;103421.84;5080001;28;47106;-52
2022/01/22 12:07:35;;;;;;;;;38.75;27.50;;;;;8.57;57.66;103426.28;5079884;27;45391;-47
2022/01/22 12:10:35;;;;;;;;;34.25;27.00;;;;;8.57;57.82;103419.19;5080063;28;45374;-45
2022/01/22 12:16:06;;;;;;;;;34.50;25.25;;;;;8.62;57.61;103406.56;5079670;28;45351;-51
2022/01/22 12:18:35;;;;;;;;;32.00;22.25;;;;;8.61;56.27;103409.28;5079758;28;45430;-54
2022/01/22 12:23:31;;;;;;;;;36.00;29.50;;;;;8.61;58.00;103409.28;5079989;28;45422;-47
2022/01/22 12:25:59;;;;;;;;;35.25;25.50;;;;;8.61;57.28;103404.84;5079399;28;46217;-48
2022/01/22 12:28:37;;;;;;;;;37.00;26.25;;;;;8.62;57.18;103395.09;5079484;28;45444;-49
2022/01/22 12:31:05;;;;;;;;;34.75;24.25;;;;;8.66;57.66;103392.22;5079537;28;45442;-48
2022/01/22 12:33:31;;;;;;;;;31.50;25.50;;;;;8.73;56.74;103411.41;5079522;28;45304;-49
2022/01/22 12:35:59;;;;;;;;;36.25;30.50;;;;;8.76;57.40;103395.31;5079415;28;47140;-48
2022/01/22 12:38:35;;;;;;;;;41.75;29.00;;;;;8.83;56.77;103383.50;5079220;28;45315;-48
2022/01/22 12:41:29;;;;;;;;;46.25;36.25;;;;;8.88;57.27;103391.25;5079138;28;45417;-56
2022/01/22 12:44:18;;;;;;;;;35.75;28.25;;;;;8.94;56.62;103385.66;5079697;28;45365;-59
2022/01/22 12:46:45;;;;;;;;;34.75;30.75;;;;;8.95;56.92;103380.28;5079116;28;47105;-56
2022/01/22 12:49:14;;;;;;;;;36.75;31.25;;;;;8.99;57.33;103381.84;5079415;28;45442;-59
2022/01/22 12:51:40;;;;;;;;;36.25;29.50;;;;;8.97;56.91;103373.13;5079543;28;45337;-47
2022/01/22 12:54:06;;;;;;;;;35.50;30.75;;;;;9.00;56.67;103369.44;5079506;27;45302;-54
2022/01/22 12:59:04;;;;;;;;;30.50;24.50;;;;;9.05;55.97;103370.06;5078890;28;45232;-55
2022/01/22 13:01:31;;;;;;;;;30.00;26.25;;;;;9.05;56.08;103370.06;5079057;28;45322;-49